sensor_id;sensor_type;location;lat;lon;timestamp;P1;durP1;ratioP1;P2;durP2;ratioP2
21095;SDS011;10706;49.036;12.112;2023-12-07T00:01:51;28.10;;;11.70;;
21095;SDS011;10706;49.036;12.112;2023-12-07T00:04:18;25.40;;;11.40;;
21095;SDS011;10706;49.036;12.112;2023-12-07T00:06:43;29.40;;;12.97;;
21095;SDS011;10706;49.036;12.112;2023-12-07T00:09:10;25.83;;;12.23;;
21095;SDS011;10706;49.036;12.112;2023-12-07T00:11:35;24.57;;;11.40;;
21095;SDS011;10706;49.036;12.112;2023-12-07T00:14:01;26.13;;;12.03;;
21095;SDS011;10706;49.036;12.112;2023-12-07T00:16:27;24.20;;;11.37;;
21095;SDS011;10706;49.036;12.112;2023-12-07T00:18:53;22.63;;;10.90;;
21095;SDS011;10706;49.036;12.112;2023-12-07T00:21:18;27.93;;;12.27;;
21095;SDS011;10706;49.036;12.112;2023-12-07T00:23:44;25.83;;;12.07;;
21095;SDS011;10706;49.036;12.112;2023-12-07T00:26:10;27.17;;;11.73;;
21095;SDS011;10706;49.036;12.112;2023-12-07T00:28:36;29.67;;;13.10;;
21095;SDS011;10706;49.036;12.112;2023-12-07T00:31:02;27.33;;;12.07;;
21095;SDS011;10706;49.036;12.112;2023-12-07T00:33:28;27.63;;;13.20;;
21095;SDS011;10706;49.036;12.112;2023-12-07T00:35:53;25.50;;;11.70;;
21095;SDS011;10706;49.036;12.112;2023-12-07T00:38:19;27.27;;;11.20;;
21095;SDS011;10706;49.036;12.112;2023-12-07T00:40:46;27.57;;;12.43;;
21095;SDS011;10706;49.036;12.112;2023-12-07T00:43:12;23.00;;;10.00;;
21095;SDS011;10706;49.036;12.112;2023-12-07T00:45:37;26.07;;;11.17;;
21095;SDS011;10706;49.036;12.112;2023-12-07T00:48:04;27.33;;;11.73;;
21095;SDS011;10706;49.036;12.112;2023-12-07T00:50:30;25.73;;;11.20;;
21095;SDS011;10706;49.036;12.112;2023-12-07T00:52:55;25.67;;;10.77;;
21095;SDS011;10706;49.036;12.112;2023-12-07T00:55:21;25.90;;;10.97;;
21095;SDS011;10706;49.036;12.112;2023-12-07T00:57:47;25.13;;;11.47;;
21095;SDS011;10706;49.036;12.112;2023-12-07T01:00:13;28.17;;;12.47;;
21095;SDS011;10706;49.036;12.112;2023-12-07T01:02:39;26.80;;;11.53;;
21095;SDS011;10706;49.036;12.112;2023-12-07T01:05:05;27.13;;;11.73;;
21095;SDS011;10706;49.036;12.112;2023-12-07T01:07:31;29.00;;;12.07;;
21095;SDS011;10706;49.036;12.112;2023-12-07T01:09:56;26.17;;;11.70;;
21095;SDS011;10706;49.036;12.112;2023-12-07T01:12:22;26.73;;;11.63;;
21095;SDS011;10706;49.036;12.112;2023-12-07T01:14:48;30.10;;;12.03;;
21095;SDS011;10706;49.036;12.112;2023-12-07T01:17:13;25.67;;;11.63;;
21095;SDS011;10706;49.036;12.112;2023-12-07T01:19:39;25.10;;;11.23;;
21095;SDS011;10706;49.036;12.112;2023-12-07T01:22:05;27.97;;;10.80;;
21095;SDS011;10706;49.036;12.112;2023-12-07T01:24:31;25.07;;;10.40;;
21095;SDS011;10706;49.036;12.112;2023-12-07T01:26:57;22.20;;;10.93;;
21095;SDS011;10706;49.036;12.112;2023-12-07T01:29:23;24.10;;;10.40;;
21095;SDS011;10706;49.036;12.112;2023-12-07T01:31:49;25.73;;;11.23;;
21095;SDS011;10706;49.036;12.112;2023-12-07T01:34:15;21.63;;;10.33;;
21095;SDS011;10706;49.036;12.112;2023-12-07T01:36:42;22.07;;;10.13;;
21095;SDS011;10706;49.036;12.112;2023-12-07T01:39:09;21.57;;;10.53;;
21095;SDS011;10706;49.036;12.112;2023-12-07T01:41:37;24.40;;;11.03;;
21095;SDS011;10706;49.036;12.112;2023-12-07T01:44:04;24.47;;;10.70;;
21095;SDS011;10706;49.036;12.112;2023-12-07T01:46:30;24.30;;;11.07;;
21095;SDS011;10706;49.036;12.112;2023-12-07T01:48:58;23.33;;;10.43;;
21095;SDS011;10706;49.036;12.112;2023-12-07T01:51:24;26.90;;;11.70;;
21095;SDS011;10706;49.036;12.112;2023-12-07T01:53:51;27.13;;;11.87;;
21095;SDS011;10706;49.036;12.112;2023-12-07T01:56:17;29.03;;;12.73;;
21095;SDS011;10706;49.036;12.112;2023-12-07T01:58:44;27.13;;;12.13;;
21095;SDS011;10706;49.036;12.112;2023-12-07T02:01:10;29.70;;;12.43;;
21095;SDS011;10706;49.036;12.112;2023-12-07T02:03:39;28.77;;;13.10;;
21095;SDS011;10706;49.036;12.112;2023-12-07T02:06:06;26.70;;;13.50;;
21095;SDS011;10706;49.036;12.112;2023-12-07T02:08:33;25.37;;;12.93;;
21095;SDS011;10706;49.036;12.112;2023-12-07T02:11:07;27.63;;;13.43;;
21095;SDS011;10706;49.036;12.112;2023-12-07T02:13:34;32.83;;;14.23;;
21095;SDS011;10706;49.036;12.112;2023-12-07T02:16:07;29.53;;;12.47;;
21095;SDS011;10706;49.036;12.112;2023-12-07T02:18:47;31.10;;;13.57;;
21095;SDS011;10706;49.036;12.112;2023-12-07T02:21:25;27.50;;;12.67;;
21095;SDS011;10706;49.036;12.112;2023-12-07T02:23:58;26.17;;;12.33;;
21095;SDS011;10706;49.036;12.112;2023-12-07T02:26:30;30.83;;;13.60;;
21095;SDS011;10706;49.036;12.112;2023-12-07T02:28:59;29.17;;;12.10;;
21095;SDS011;10706;49.036;12.112;2023-12-07T02:31:25;28.87;;;12.83;;
21095;SDS011;10706;49.036;12.112;2023-12-07T02:33:51;28.53;;;12.97;;
21095;SDS011;10706;49.036;12.112;2023-12-07T02:36:17;25.80;;;12.00;;
21095;SDS011;10706;49.036;12.112;2023-12-07T02:38:47;29.40;;;13.07;;
21095;SDS011;10706;49.036;12.112;2023-12-07T02:41:17;25.77;;;11.47;;
21095;SDS011;10706;49.036;12.112;2023-12-07T02:43:45;26.77;;;12.47;;
21095;SDS011;10706;49.036;12.112;2023-12-07T02:46:11;26.27;;;11.77;;
21095;SDS011;10706;49.036;12.112;2023-12-07T02:48:37;25.77;;;12.13;;
21095;SDS011;10706;49.036;12.112;2023-12-07T02:51:02;28.57;;;11.20;;
21095;SDS011;10706;49.036;12.112;2023-12-07T02:53:28;26.33;;;11.73;;
21095;SDS011;10706;49.036;12.112;2023-12-07T02:55:54;24.57;;;11.03;;
21095;SDS011;10706;49.036;12.112;2023-12-07T02:58:20;24.97;;;11.37;;
21095;SDS011;10706;49.036;12.112;2023-12-07T03:00:45;22.30;;;10.80;;
21095;SDS011;10706;49.036;12.112;2023-12-07T03:03:11;23.50;;;11.37;;
21095;SDS011;10706;49.036;12.112;2023-12-07T03:05:37;26.00;;;11.17;;
21095;SDS011;10706;49.036;12.112;2023-12-07T03:08:03;23.83;;;11.17;;
21095;SDS011;10706;49.036;12.112;2023-12-07T03:10:29;27.17;;;11.60;;
21095;SDS011;10706;49.036;12.112;2023-12-07T03:12:54;25.83;;;11.93;;
21095;SDS011;10706;49.036;12.112;2023-12-07T03:15:20;25.83;;;11.63;;
21095;SDS011;10706;49.036;12.112;2023-12-07T03:17:46;24.27;;;10.47;;
21095;SDS011;10706;49.036;12.112;2023-12-07T03:20:12;26.57;;;12.13;;
21095;SDS011;10706;49.036;12.112;2023-12-07T03:22:38;26.03;;;11.97;;
21095;SDS011;10706;49.036;12.112;2023-12-07T03:25:04;26.67;;;11.00;;
21095;SDS011;10706;49.036;12.112;2023-12-07T03:27:30;24.70;;;10.83;;
21095;SDS011;10706;49.036;12.112;2023-12-07T03:29:56;25.17;;;9.73;;
21095;SDS011;10706;49.036;12.112;2023-12-07T03:32:22;25.53;;;10.57;;
21095;SDS011;10706;49.036;12.112;2023-12-07T03:34:47;25.60;;;10.70;;
21095;SDS011;10706;49.036;12.112;2023-12-07T03:37:13;20.20;;;9.30;;
21095;SDS011;10706;49.036;12.112;2023-12-07T03:39:39;23.50;;;10.40;;
21095;SDS011;10706;49.036;12.112;2023-12-07T03:42:05;23.63;;;10.77;;
21095;SDS011;10706;49.036;12.112;2023-12-07T03:44:31;26.17;;;10.83;;
21095;SDS011;10706;49.036;12.112;2023-12-07T03:46:56;22.87;;;11.37;;
21095;SDS011;10706;49.036;12.112;2023-12-07T03:49:22;25.03;;;10.70;;
21095;SDS011;10706;49.036;12.112;2023-12-07T03:51:48;28.10;;;11.60;;
21095;SDS011;10706;49.036;12.112;2023-12-07T03:54:14;23.43;;;10.40;;
21095;SDS011;10706;49.036;12.112;2023-12-07T03:56:39;26.30;;;10.37;;
21095;SDS011;10706;49.036;12.112;2023-12-07T03:59:08;22.57;;;10.17;;
21095;SDS011;10706;49.036;12.112;2023-12-07T04:01:34;25.40;;;11.23;;
21095;SDS011;10706;49.036;12.112;2023-12-07T04:04:00;29.77;;;11.97;;
21095;SDS011;10706;49.036;12.112;2023-12-07T04:06:26;22.33;;;10.37;;
21095;SDS011;10706;49.036;12.112;2023-12-07T04:08:52;25.60;;;11.43;;
21095;SDS011;10706;49.036;12.112;2023-12-07T04:11:18;26.57;;;11.47;;
21095;SDS011;10706;49.036;12.112;2023-12-07T04:13:44;27.07;;;11.87;;
21095;SDS011;10706;49.036;12.112;2023-12-07T04:16:10;21.83;;;9.57;;
21095;SDS011;10706;49.036;12.112;2023-12-07T04:18:37;22.10;;;10.47;;
21095;SDS011;10706;49.036;12.112;2023-12-07T04:21:02;23.67;;;11.13;;
21095;SDS011;10706;49.036;12.112;2023-12-07T04:23:30;22.23;;;10.30;;
21095;SDS011;10706;49.036;12.112;2023-12-07T04:25:56;24.33;;;10.43;;
21095;SDS011;10706;49.036;12.112;2023-12-07T04:28:22;23.73;;;10.20;;
21095;SDS011;10706;49.036;12.112;2023-12-07T04:30:47;22.60;;;10.70;;
21095;SDS011;10706;49.036;12.112;2023-12-07T04:33:13;25.03;;;10.77;;
21095;SDS011;10706;49.036;12.112;2023-12-07T04:35:39;22.33;;;9.17;;
21095;SDS011;10706;49.036;12.112;2023-12-07T04:38:05;23.73;;;10.23;;
21095;SDS011;10706;49.036;12.112;2023-12-07T04:40:31;21.37;;;9.60;;
21095;SDS011;10706;49.036;12.112;2023-12-07T04:42:56;23.43;;;9.87;;
21095;SDS011;10706;49.036;12.112;2023-12-07T04:45:22;22.83;;;9.97;;
21095;SDS011;10706;49.036;12.112;2023-12-07T04:47:48;24.93;;;10.20;;
21095;SDS011;10706;49.036;12.112;2023-12-07T04:50:14;24.83;;;10.40;;
21095;SDS011;10706;49.036;12.112;2023-12-07T04:52:40;23.27;;;10.20;;
21095;SDS011;10706;49.036;12.112;2023-12-07T04:55:06;22.50;;;9.93;;
21095;SDS011;10706;49.036;12.112;2023-12-07T04:57:33;21.13;;;9.93;;
21095;SDS011;10706;49.036;12.112;2023-12-07T04:59:59;21.10;;;10.30;;
21095;SDS011;10706;49.036;12.112;2023-12-07T05:02:26;21.87;;;9.73;;
21095;SDS011;10706;49.036;12.112;2023-12-07T05:04:52;25.33;;;11.03;;
21095;SDS011;10706;49.036;12.112;2023-12-07T05:07:19;25.57;;;10.87;;
21095;SDS011;10706;49.036;12.112;2023-12-07T05:09:45;24.10;;;11.17;;
21095;SDS011;10706;49.036;12.112;2023-12-07T05:12:11;23.83;;;10.87;;
21095;SDS011;10706;49.036;12.112;2023-12-07T05:14:37;26.10;;;11.00;;
21095;SDS011;10706;49.036;12.112;2023-12-07T05:17:03;24.70;;;11.03;;
21095;SDS011;10706;49.036;12.112;2023-12-07T05:19:30;25.23;;;11.37;;
21095;SDS011;10706;49.036;12.112;2023-12-07T05:21:55;23.00;;;11.00;;
21095;SDS011;10706;49.036;12.112;2023-12-07T05:24:21;21.83;;;10.07;;
21095;SDS011;10706;49.036;12.112;2023-12-07T05:26:47;24.47;;;10.80;;
21095;SDS011;10706;49.036;12.112;2023-12-07T05:29:14;23.23;;;10.83;;
21095;SDS011;10706;49.036;12.112;2023-12-07T05:31:40;26.00;;;10.30;;
21095;SDS011;10706;49.036;12.112;2023-12-07T05:34:09;23.30;;;10.93;;
21095;SDS011;10706;49.036;12.112;2023-12-07T05:36:35;22.83;;;10.03;;
21095;SDS011;10706;49.036;12.112;2023-12-07T05:39:01;25.67;;;11.43;;
21095;SDS011;10706;49.036;12.112;2023-12-07T05:41:27;25.57;;;11.40;;
21095;SDS011;10706;49.036;12.112;2023-12-07T05:43:53;23.47;;;10.60;;
21095;SDS011;10706;49.036;12.112;2023-12-07T05:46:19;24.57;;;11.80;;
21095;SDS011;10706;49.036;12.112;2023-12-07T05:48:45;27.57;;;11.50;;
21095;SDS011;10706;49.036;12.112;2023-12-07T05:51:12;23.93;;;11.20;;
21095;SDS011;10706;49.036;12.112;2023-12-07T05:53:46;23.83;;;10.63;;
21095;SDS011;10706;49.036;12.112;2023-12-07T05:56:11;24.97;;;11.10;;
21095;SDS011;10706;49.036;12.112;2023-12-07T05:58:42;25.83;;;12.03;;
21095;SDS011;10706;49.036;12.112;2023-12-07T06:01:08;28.80;;;11.93;;
21095;SDS011;10706;49.036;12.112;2023-12-07T06:03:34;26.37;;;11.33;;
21095;SDS011;10706;49.036;12.112;2023-12-07T06:06:00;26.10;;;11.63;;
21095;SDS011;10706;49.036;12.112;2023-12-07T06:08:26;25.93;;;10.97;;
21095;SDS011;10706;49.036;12.112;2023-12-07T06:10:52;25.83;;;11.87;;
21095;SDS011;10706;49.036;12.112;2023-12-07T06:13:18;25.67;;;11.70;;
21095;SDS011;10706;49.036;12.112;2023-12-07T06:15:43;27.00;;;11.57;;
21095;SDS011;10706;49.036;12.112;2023-12-07T06:18:09;26.07;;;11.93;;
21095;SDS011;10706;49.036;12.112;2023-12-07T06:20:35;28.73;;;12.53;;
21095;SDS011;10706;49.036;12.112;2023-12-07T06:23:03;28.00;;;12.53;;
21095;SDS011;10706;49.036;12.112;2023-12-07T06:25:29;25.93;;;12.80;;
21095;SDS011;10706;49.036;12.112;2023-12-07T06:27:55;27.93;;;12.47;;
21095;SDS011;10706;49.036;12.112;2023-12-07T06:30:21;23.27;;;11.50;;
21095;SDS011;10706;49.036;12.112;2023-12-07T06:32:47;24.37;;;11.47;;
21095;SDS011;10706;49.036;12.112;2023-12-07T06:35:13;25.50;;;11.67;;
21095;SDS011;10706;49.036;12.112;2023-12-07T06:37:39;25.30;;;11.00;;
21095;SDS011;10706;49.036;12.112;2023-12-07T06:40:07;28.23;;;12.33;;
21095;SDS011;10706;49.036;12.112;2023-12-07T06:42:36;26.80;;;10.93;;
21095;SDS011;10706;49.036;12.112;2023-12-07T06:45:03;27.13;;;12.73;;
21095;SDS011;10706;49.036;12.112;2023-12-07T06:47:36;26.73;;;10.83;;
21095;SDS011;10706;49.036;12.112;2023-12-07T06:50:03;29.73;;;11.80;;
21095;SDS011;10706;49.036;12.112;2023-12-07T06:52:33;32.13;;;12.77;;
21095;SDS011;10706;49.036;12.112;2023-12-07T06:54:59;26.17;;;12.03;;
21095;SDS011;10706;49.036;12.112;2023-12-07T06:57:25;27.40;;;12.20;;
21095;SDS011;10706;49.036;12.112;2023-12-07T06:59:51;34.63;;;12.67;;
21095;SDS011;10706;49.036;12.112;2023-12-07T07:02:20;24.70;;;11.00;;
21095;SDS011;10706;49.036;12.112;2023-12-07T07:04:46;30.00;;;11.83;;
21095;SDS011;10706;49.036;12.112;2023-12-07T07:07:14;72.73;;;27.33;;
21095;SDS011;10706;49.036;12.112;2023-12-07T07:09:40;42.13;;;16.50;;
21095;SDS011;10706;49.036;12.112;2023-12-07T07:12:06;33.23;;;14.27;;
21095;SDS011;10706;49.036;12.112;2023-12-07T07:14:32;27.17;;;11.90;;
21095;SDS011;10706;49.036;12.112;2023-12-07T07:16:59;29.23;;;14.03;;
21095;SDS011;10706;49.036;12.112;2023-12-07T07:19:25;32.70;;;13.37;;
21095;SDS011;10706;49.036;12.112;2023-12-07T07:21:51;28.03;;;13.00;;
21095;SDS011;10706;49.036;12.112;2023-12-07T07:24:16;28.70;;;13.43;;
21095;SDS011;10706;49.036;12.112;2023-12-07T07:26:42;26.57;;;11.67;;
21095;SDS011;10706;49.036;12.112;2023-12-07T07:29:08;29.67;;;13.27;;
21095;SDS011;10706;49.036;12.112;2023-12-07T07:31:34;29.33;;;12.80;;
21095;SDS011;10706;49.036;12.112;2023-12-07T07:34:01;30.30;;;14.37;;
21095;SDS011;10706;49.036;12.112;2023-12-07T07:36:27;28.73;;;13.20;;
21095;SDS011;10706;49.036;12.112;2023-12-07T07:38:54;30.30;;;13.87;;
21095;SDS011;10706;49.036;12.112;2023-12-07T07:41:23;30.10;;;13.53;;
21095;SDS011;10706;49.036;12.112;2023-12-07T07:43:52;29.77;;;14.37;;
21095;SDS011;10706;49.036;12.112;2023-12-07T07:46:18;28.00;;;12.80;;
21095;SDS011;10706;49.036;12.112;2023-12-07T07:48:46;31.30;;;14.03;;
21095;SDS011;10706;49.036;12.112;2023-12-07T07:51:15;30.67;;;13.67;;
21095;SDS011;10706;49.036;12.112;2023-12-07T07:53:43;32.17;;;13.93;;
21095;SDS011;10706;49.036;12.112;2023-12-07T07:56:09;28.00;;;13.17;;
21095;SDS011;10706;49.036;12.112;2023-12-07T07:58:38;28.70;;;12.60;;
21095;SDS011;10706;49.036;12.112;2023-12-07T08:01:07;31.63;;;14.80;;
21095;SDS011;10706;49.036;12.112;2023-12-07T08:03:33;29.73;;;13.80;;
21095;SDS011;10706;49.036;12.112;2023-12-07T08:06:03;34.70;;;14.90;;
21095;SDS011;10706;49.036;12.112;2023-12-07T08:08:31;29.40;;;13.30;;
21095;SDS011;10706;49.036;12.112;2023-12-07T08:10:57;33.13;;;14.30;;
21095;SDS011;10706;49.036;12.112;2023-12-07T08:13:27;34.10;;;15.50;;
21095;SDS011;10706;49.036;12.112;2023-12-07T08:15:53;32.27;;;14.60;;
21095;SDS011;10706;49.036;12.112;2023-12-07T08:18:28;35.17;;;14.47;;
21095;SDS011;10706;49.036;12.112;2023-12-07T08:20:55;36.27;;;14.50;;
21095;SDS011;10706;49.036;12.112;2023-12-07T08:23:22;33.20;;;15.20;;
21095;SDS011;10706;49.036;12.112;2023-12-07T08:25:57;33.10;;;14.90;;
21095;SDS011;10706;49.036;12.112;2023-12-07T08:28:23;35.03;;;15.63;;
21095;SDS011;10706;49.036;12.112;2023-12-07T08:30:49;30.17;;;14.77;;
21095;SDS011;10706;49.036;12.112;2023-12-07T08:33:15;31.67;;;14.43;;
21095;SDS011;10706;49.036;12.112;2023-12-07T08:35:41;26.77;;;12.83;;
21095;SDS011;10706;49.036;12.112;2023-12-07T08:38:07;37.17;;;15.33;;
21095;SDS011;10706;49.036;12.112;2023-12-07T08:40:33;30.30;;;13.40;;
21095;SDS011;10706;49.036;12.112;2023-12-07T08:43:02;29.37;;;13.67;;
21095;SDS011;10706;49.036;12.112;2023-12-07T08:45:29;34.17;;;14.73;;
21095;SDS011;10706;49.036;12.112;2023-12-07T08:47:55;30.60;;;13.47;;
21095;SDS011;10706;49.036;12.112;2023-12-07T08:50:24;31.43;;;13.53;;
21095;SDS011;10706;49.036;12.112;2023-12-07T08:52:52;32.03;;;14.27;;
21095;SDS011;10706;49.036;12.112;2023-12-07T08:55:18;30.77;;;14.90;;
21095;SDS011;10706;49.036;12.112;2023-12-07T08:57:44;36.33;;;16.03;;
21095;SDS011;10706;49.036;12.112;2023-12-07T09:00:10;36.77;;;17.27;;
21095;SDS011;10706;49.036;12.112;2023-12-07T09:02:38;32.70;;;15.47;;
21095;SDS011;10706;49.036;12.112;2023-12-07T09:05:04;36.77;;;16.40;;
21095;SDS011;10706;49.036;12.112;2023-12-07T09:07:30;34.63;;;16.27;;
21095;SDS011;10706;49.036;12.112;2023-12-07T09:09:56;34.27;;;15.00;;
21095;SDS011;10706;49.036;12.112;2023-12-07T09:12:22;30.97;;;14.83;;
21095;SDS011;10706;49.036;12.112;2023-12-07T09:14:51;35.33;;;15.40;;
21095;SDS011;10706;49.036;12.112;2023-12-07T09:17:20;36.47;;;15.70;;
21095;SDS011;10706;49.036;12.112;2023-12-07T09:19:46;34.83;;;17.27;;
21095;SDS011;10706;49.036;12.112;2023-12-07T09:22:15;36.50;;;16.70;;
21095;SDS011;10706;49.036;12.112;2023-12-07T09:24:41;34.50;;;14.40;;
21095;SDS011;10706;49.036;12.112;2023-12-07T09:27:15;35.87;;;15.83;;
21095;SDS011;10706;49.036;12.112;2023-12-07T09:29:41;34.23;;;14.90;;
21095;SDS011;10706;49.036;12.112;2023-12-07T09:32:07;33.93;;;15.33;;
21095;SDS011;10706;49.036;12.112;2023-12-07T09:34:36;31.10;;;15.07;;
21095;SDS011;10706;49.036;12.112;2023-12-07T09:37:07;38.37;;;14.47;;
21095;SDS011;10706;49.036;12.112;2023-12-07T09:39:34;34.17;;;15.93;;
21095;SDS011;10706;49.036;12.112;2023-12-07T09:42:00;31.77;;;15.57;;
21095;SDS011;10706;49.036;12.112;2023-12-07T09:44:27;32.57;;;14.93;;
21095;SDS011;10706;49.036;12.112;2023-12-07T09:46:54;34.80;;;14.93;;
21095;SDS011;10706;49.036;12.112;2023-12-07T09:49:20;31.77;;;13.77;;
21095;SDS011;10706;49.036;12.112;2023-12-07T09:51:48;30.37;;;14.40;;
21095;SDS011;10706;49.036;12.112;2023-12-07T09:54:18;26.87;;;14.13;;
21095;SDS011;10706;49.036;12.112;2023-12-07T09:56:48;31.13;;;14.37;;
21095;SDS011;10706;49.036;12.112;2023-12-07T09:59:16;28.33;;;15.33;;
21095;SDS011;10706;49.036;12.112;2023-12-07T10:01:42;29.90;;;14.00;;
21095;SDS011;10706;49.036;12.112;2023-12-07T10:04:14;30.40;;;13.70;;
21095;SDS011;10706;49.036;12.112;2023-12-07T10:06:45;26.47;;;12.83;;
21095;SDS011;10706;49.036;12.112;2023-12-07T10:09:13;31.43;;;14.17;;
21095;SDS011;10706;49.036;12.112;2023-12-07T10:11:39;28.13;;;12.60;;
21095;SDS011;10706;49.036;12.112;2023-12-07T10:14:06;30.40;;;12.77;;
21095;SDS011;10706;49.036;12.112;2023-12-07T10:16:33;25.50;;;12.87;;
21095;SDS011;10706;49.036;12.112;2023-12-07T10:19:14;29.33;;;13.53;;
21095;SDS011;10706;49.036;12.112;2023-12-07T10:21:44;34.67;;;15.47;;
21095;SDS011;10706;49.036;12.112;2023-12-07T10:24:12;30.37;;;13.37;;
21095;SDS011;10706;49.036;12.112;2023-12-07T10:26:38;29.97;;;13.60;;
21095;SDS011;10706;49.036;12.112;2023-12-07T10:29:05;31.33;;;14.47;;
21095;SDS011;10706;49.036;12.112;2023-12-07T10:31:34;27.97;;;13.13;;
21095;SDS011;10706;49.036;12.112;2023-12-07T10:34:01;29.93;;;14.77;;
21095;SDS011;10706;49.036;12.112;2023-12-07T10:36:28;29.00;;;13.90;;
21095;SDS011;10706;49.036;12.112;2023-12-07T10:38:54;35.63;;;15.83;;
21095;SDS011;10706;49.036;12.112;2023-12-07T10:41:21;28.47;;;14.13;;
21095;SDS011;10706;49.036;12.112;2023-12-07T10:43:49;34.10;;;15.40;;
21095;SDS011;10706;49.036;12.112;2023-12-07T10:46:25;28.90;;;14.80;;
21095;SDS011;10706;49.036;12.112;2023-12-07T10:48:54;30.90;;;14.23;;
21095;SDS011;10706;49.036;12.112;2023-12-07T10:54:03;26.33;;;12.60;;
21095;SDS011;10706;49.036;12.112;2023-12-07T10:56:39;26.17;;;12.73;;
21095;SDS011;10706;49.036;12.112;2023-12-07T10:59:27;28.43;;;14.20;;
21095;SDS011;10706;49.036;12.112;2023-12-07T11:01:54;30.73;;;14.37;;
21095;SDS011;10706;49.036;12.112;2023-12-07T11:04:23;30.33;;;14.67;;
21095;SDS011;10706;49.036;12.112;2023-12-07T11:06:49;28.47;;;13.60;;
21095;SDS011;10706;49.036;12.112;2023-12-07T11:09:21;30.37;;;14.00;;
21095;SDS011;10706;49.036;12.112;2023-12-07T11:12:11;29.73;;;14.20;;
21095;SDS011;10706;49.036;12.112;2023-12-07T11:14:53;28.67;;;14.20;;
21095;SDS011;10706;49.036;12.112;2023-12-07T11:17:20;30.77;;;14.80;;
21095;SDS011;10706;49.036;12.112;2023-12-07T11:19:47;30.87;;;15.53;;
21095;SDS011;10706;49.036;12.112;2023-12-07T11:22:13;29.47;;;13.73;;
21095;SDS011;10706;49.036;12.112;2023-12-07T11:24:55;26.60;;;13.93;;
21095;SDS011;10706;49.036;12.112;2023-12-07T11:27:25;30.07;;;14.97;;
21095;SDS011;10706;49.036;12.112;2023-12-07T11:29:58;31.67;;;14.00;;
21095;SDS011;10706;49.036;12.112;2023-12-07T11:32:26;29.53;;;13.70;;
21095;SDS011;10706;49.036;12.112;2023-12-07T11:34:53;30.53;;;13.73;;
21095;SDS011;10706;49.036;12.112;2023-12-07T11:37:19;29.70;;;14.70;;
21095;SDS011;10706;49.036;12.112;2023-12-07T11:39:48;32.80;;;14.63;;
21095;SDS011;10706;49.036;12.112;2023-12-07T11:42:18;29.70;;;15.07;;
21095;SDS011;10706;49.036;12.112;2023-12-07T11:44:47;32.50;;;15.43;;
21095;SDS011;10706;49.036;12.112;2023-12-07T11:47:15;36.13;;;17.07;;
21095;SDS011;10706;49.036;12.112;2023-12-07T11:49:46;34.40;;;16.50;;
21095;SDS011;10706;49.036;12.112;2023-12-07T11:52:26;35.87;;;16.27;;
21095;SDS011;10706;49.036;12.112;2023-12-07T11:55:04;38.13;;;16.70;;
21095;SDS011;10706;49.036;12.112;2023-12-07T11:57:31;41.00;;;18.00;;
21095;SDS011;10706;49.036;12.112;2023-12-07T11:59:59;39.20;;;18.10;;
21095;SDS011;10706;49.036;12.112;2023-12-07T12:02:25;36.87;;;16.47;;
21095;SDS011;10706;49.036;12.112;2023-12-07T12:04:51;39.10;;;17.33;;
21095;SDS011;10706;49.036;12.112;2023-12-07T12:07:19;34.10;;;15.90;;
21095;SDS011;10706;49.036;12.112;2023-12-07T12:09:45;41.53;;;18.53;;
21095;SDS011;10706;49.036;12.112;2023-12-07T12:12:11;43.93;;;16.90;;
21095;SDS011;10706;49.036;12.112;2023-12-07T12:14:40;41.47;;;17.57;;
21095;SDS011;10706;49.036;12.112;2023-12-07T12:17:06;35.53;;;17.23;;
21095;SDS011;10706;49.036;12.112;2023-12-07T12:19:32;41.60;;;17.57;;
21095;SDS011;10706;49.036;12.112;2023-12-07T12:22:01;40.03;;;17.97;;
21095;SDS011;10706;49.036;12.112;2023-12-07T12:24:27;40.23;;;17.93;;
21095;SDS011;10706;49.036;12.112;2023-12-07T12:26:53;42.93;;;17.90;;
21095;SDS011;10706;49.036;12.112;2023-12-07T12:29:20;44.07;;;17.83;;
21095;SDS011;10706;49.036;12.112;2023-12-07T12:31:47;39.87;;;18.73;;
21095;SDS011;10706;49.036;12.112;2023-12-07T12:34:13;37.17;;;17.33;;
21095;SDS011;10706;49.036;12.112;2023-12-07T12:36:39;41.97;;;17.40;;
21095;SDS011;10706;49.036;12.112;2023-12-07T12:39:08;37.30;;;17.07;;
21095;SDS011;10706;49.036;12.112;2023-12-07T12:41:36;39.53;;;17.73;;
21095;SDS011;10706;49.036;12.112;2023-12-07T12:44:11;33.90;;;15.87;;
21095;SDS011;10706;49.036;12.112;2023-12-07T12:46:40;40.10;;;18.03;;
21095;SDS011;10706;49.036;12.112;2023-12-07T12:52:14;42.33;;;16.73;;
21095;SDS011;10706;49.036;12.112;2023-12-07T12:54:47;36.93;;;16.97;;
21095;SDS011;10706;49.036;12.112;2023-12-07T12:57:14;39.90;;;17.70;;
21095;SDS011;10706;49.036;12.112;2023-12-07T13:00:02;39.40;;;15.90;;
21095;SDS011;10706;49.036;12.112;2023-12-07T13:02:28;42.43;;;16.83;;
21095;SDS011;10706;49.036;12.112;2023-12-07T13:04:57;37.57;;;16.70;;
21095;SDS011;10706;49.036;12.112;2023-12-07T13:07:24;32.07;;;15.73;;
21095;SDS011;10706;49.036;12.112;2023-12-07T13:09:52;36.93;;;15.57;;
21095;SDS011;10706;49.036;12.112;2023-12-07T13:12:19;36.97;;;15.57;;
21095;SDS011;10706;49.036;12.112;2023-12-07T13:14:47;36.10;;;14.17;;
21095;SDS011;10706;49.036;12.112;2023-12-07T13:17:13;33.30;;;15.00;;
21095;SDS011;10706;49.036;12.112;2023-12-07T13:20:02;31.67;;;14.13;;
21095;SDS011;10706;49.036;12.112;2023-12-07T13:22:33;33.30;;;14.90;;
21095;SDS011;10706;49.036;12.112;2023-12-07T13:25:00;28.67;;;13.93;;
21095;SDS011;10706;49.036;12.112;2023-12-07T13:27:31;31.90;;;14.07;;
21095;SDS011;10706;49.036;12.112;2023-12-07T13:30:05;34.20;;;14.50;;
21095;SDS011;10706;49.036;12.112;2023-12-07T13:32:32;30.27;;;14.47;;
21095;SDS011;10706;49.036;12.112;2023-12-07T13:35:01;25.77;;;11.57;;
21095;SDS011;10706;49.036;12.112;2023-12-07T13:37:28;28.13;;;12.47;;
21095;SDS011;10706;49.036;12.112;2023-12-07T13:39:54;28.38;;;13.40;;
21095;SDS011;10706;49.036;12.112;2023-12-07T13:42:25;24.73;;;12.40;;
21095;SDS011;10706;49.036;12.112;2023-12-07T13:44:58;26.10;;;12.37;;
21095;SDS011;10706;49.036;12.112;2023-12-07T13:47:36;26.77;;;13.27;;
21095;SDS011;10706;49.036;12.112;2023-12-07T13:50:03;24.10;;;12.10;;
21095;SDS011;10706;49.036;12.112;2023-12-07T13:52:32;25.73;;;13.30;;
21095;SDS011;10706;49.036;12.112;2023-12-07T13:54:58;26.67;;;12.03;;
21095;SDS011;10706;49.036;12.112;2023-12-07T13:57:24;26.07;;;11.80;;
21095;SDS011;10706;49.036;12.112;2023-12-07T13:59:51;27.50;;;12.37;;
21095;SDS011;10706;49.036;12.112;2023-12-07T14:02:25;28.17;;;13.67;;
21095;SDS011;10706;49.036;12.112;2023-12-07T14:04:53;26.33;;;12.10;;
21095;SDS011;10706;49.036;12.112;2023-12-07T14:07:21;25.43;;;12.33;;
21095;SDS011;10706;49.036;12.112;2023-12-07T14:10:13;25.77;;;11.60;;
21095;SDS011;10706;49.036;12.112;2023-12-07T14:12:40;25.43;;;12.63;;
21095;SDS011;10706;49.036;12.112;2023-12-07T14:15:07;27.70;;;12.80;;
21095;SDS011;10706;49.036;12.112;2023-12-07T14:17:34;28.37;;;12.80;;